sensor_id;sensor_type;location;lat;lon;timestamp;temperature;humidity
15777;DHT22;7989;51.198;6.676;2022-11-02T00:00:42;13.60;99.90
15777;DHT22;7989;51.198;6.676;2022-11-02T00:03:10;13.70;99.90
15777;DHT22;7989;51.198;6.676;2022-11-02T00:05:37;13.70;99.90
15777;DHT22;7989;51.198;6.676;2022-11-02T00:08:04;13.80;99.90
15777;DHT22;7989;51.198;6.676;2022-11-02T00:10:31;13.80;99.90
15777;DHT22;7989;51.198;6.676;2022-11-02T00:12:58;13.90;99.90
15777;DHT22;7989;51.198;6.676;2022-11-02T00:15:27;13.90;99.90
15777;DHT22;7989;51.198;6.676;2022-11-02T00:17:58;13.90;99.90
15777;DHT22;7989;51.198;6.676;2022-11-02T00:20:29;14.00;99.90
15777;DHT22;7989;51.198;6.676;2022-11-02T00:22:58;14.10;99.90
15777;DHT22;7989;51.198;6.676;2022-11-02T00:25:27;14.20;99.90
15777;DHT22;7989;51.198;6.676;2022-11-02T00:27:54;14.30;99.90
15777;DHT22;7989;51.198;6.676;2022-11-02T00:30:21;14.30;99.90
15777;DHT22;7989;51.198;6.676;2022-11-02T00:32:49;14.40;99.90
15777;DHT22;7989;51.198;6.676;2022-11-02T00:35:16;14.50;99.90
15777;DHT22;7989;51.198;6.676;2022-11-02T00:37:44;14.60;99.90
15777;DHT22;7989;51.198;6.676;2022-11-02T00:40:11;14.60;99.90
15777;DHT22;7989;51.198;6.676;2022-11-02T00:42:38;14.70;99.90
15777;DHT22;7989;51.198;6.676;2022-11-02T00:45:06;14.70;99.90
15777;DHT22;7989;51.198;6.676;2022-11-02T00:47:33;14.70;99.90
15777;DHT22;7989;51.198;6.676;2022-11-02T00:50:00;14.70;99.90
15777;DHT22;7989;51.198;6.676;2022-11-02T00:52:27;14.70;99.90
15777;DHT22;7989;51.198;6.676;2022-11-02T00:54:55;14.70;99.90
15777;DHT22;7989;51.198;6.676;2022-11-02T00:57:22;14.70;99.90
15777;DHT22;7989;51.198;6.676;2022-11-02T00:59:49;14.70;99.90
15777;DHT22;7989;51.198;6.676;2022-11-02T01:02:16;14.60;99.90
15777;DHT22;7989;51.198;6.676;2022-11-02T01:04:43;14.50;99.90
15777;DHT22;7989;51.198;6.676;2022-11-02T01:07:09;14.40;99.90
15777;DHT22;7989;51.198;6.676;2022-11-02T01:09:36;14.30;99.90
15777;DHT22;7989;51.198;6.676;2022-11-02T01:12:05;14.30;99.90
15777;DHT22;7989;51.198;6.676;2022-11-02T01:14:32;14.20;99.90
15777;DHT22;7989;51.198;6.676;2022-11-02T01:16:59;14.10;99.90
15777;DHT22;7989;51.198;6.676;2022-11-02T01:19:26;14.20;99.90
15777;DHT22;7989;51.198;6.676;2022-11-02T01:21:53;14.20;99.90
15777;DHT22;7989;51.198;6.676;2022-11-02T01:24:20;14.10;99.90
15777;DHT22;7989;51.198;6.676;2022-11-02T01:26:49;14.20;99.90
15777;DHT22;7989;51.198;6.676;2022-11-02T01:29:17;14.20;99.90
15777;DHT22;7989;51.198;6.676;2022-11-02T01:31:44;14.30;99.90
15777;DHT22;7989;51.198;6.676;2022-11-02T01:34:11;14.30;99.90
15777;DHT22;7989;51.198;6.676;2022-11-02T01:36:38;14.20;99.90
15777;DHT22;7989;51.198;6.676;2022-11-02T01:39:05;14.10;99.90
15777;DHT22;7989;51.198;6.676;2022-11-02T01:41:32;14.10;99.90
15777;DHT22;7989;51.198;6.676;2022-11-02T01:44:02;14.00;99.90
15777;DHT22;7989;51.198;6.676;2022-11-02T01:46:35;14.10;99.90
15777;DHT22;7989;51.198;6.676;2022-11-02T01:49:07;14.10;99.90
15777;DHT22;7989;51.198;6.676;2022-11-02T01:51:39;14.10;99.90
15777;DHT22;7989;51.198;6.676;2022-11-02T01:54:09;14.10;99.90
15777;DHT22;7989;51.198;6.676;2022-11-02T01:56:39;14.10;99.90
15777;DHT22;7989;51.198;6.676;2022-11-02T01:59:09;14.00;99.90
15777;DHT22;7989;51.198;6.676;2022-11-02T02:01:38;14.00;99.90
15777;DHT22;7989;51.198;6.676;2022-11-02T02:04:05;13.90;99.90
15777;DHT22;7989;51.198;6.676;2022-11-02T02:06:32;13.90;99.90
15777;DHT22;7989;51.198;6.676;2022-11-02T02:09:02;13.90;99.90
15777;DHT22;7989;51.198;6.676;2022-11-02T02:11:31;13.80;99.90
15777;DHT22;7989;51.198;6.676;2022-11-02T02:14:01;13.80;99.90
15777;DHT22;7989;51.198;6.676;2022-11-02T02:16:48;13.80;99.90
15777;DHT22;7989;51.198;6.676;2022-11-02T02:19:27;13.70;99.90
15777;DHT22;7989;51.198;6.676;2022-11-02T02:22:14;13.70;99.90
15777;DHT22;7989;51.198;6.676;2022-11-02T02:24:49;13.70;99.90
15777;DHT22;7989;51.198;6.676;2022-11-02T02:27:20;13.90;99.90
15777;DHT22;7989;51.198;6.676;2022-11-02T02:30:04;13.90;99.90
15777;DHT22;7989;51.198;6.676;2022-11-02T02:32:37;14.00;99.90
15777;DHT22;7989;51.198;6.676;2022-11-02T02:35:13;14.00;99.90
15777;DHT22;7989;51.198;6.676;2022-11-02T02:37:45;14.00;99.90
15777;DHT22;7989;51.198;6.676;2022-11-02T02:40:18;13.90;99.90
15777;DHT22;7989;51.198;6.676;2022-11-02T02:42:49;13.90;99.90
15777;DHT22;7989;51.198;6.676;2022-11-02T02:45:22;13.90;99.90
15777;DHT22;7989;51.198;6.676;2022-11-02T02:47:54;13.80;99.90
15777;DHT22;7989;51.198;6.676;2022-11-02T02:50:26;13.70;99.90
15777;DHT22;7989;51.198;6.676;2022-11-02T02:52:55;13.70;99.90
15777;DHT22;7989;51.198;6.676;2022-11-02T02:55:28;13.70;99.90
15777;DHT22;7989;51.198;6.676;2022-11-02T02:57:59;13.70;99.90
15777;DHT22;7989;51.198;6.676;2022-11-02T03:00:29;13.70;99.90
15777;DHT22;7989;51.198;6.676;2022-11-02T03:02:57;13.70;99.90
15777;DHT22;7989;51.198;6.676;2022-11-02T03:05:30;13.70;99.90
15777;DHT22;7989;51.198;6.676;2022-11-02T03:08:01;13.80;99.90
15777;DHT22;7989;51.198;6.676;2022-11-02T03:10:32;13.70;99.90
15777;DHT22;7989;51.198;6.676;2022-11-02T03:13:09;13.60;99.90
15777;DHT22;7989;51.198;6.676;2022-11-02T03:15:41;13.60;99.90
15777;DHT22;7989;51.198;6.676;2022-11-02T03:18:16;13.60;99.90
15777;DHT22;7989;51.198;6.676;2022-11-02T03:20:56;13.60;99.90
15777;DHT22;7989;51.198;6.676;2022-11-02T03:23:29;13.50;99.90
15777;DHT22;7989;51.198;6.676;2022-11-02T03:26:01;13.50;99.90
15777;DHT22;7989;51.198;6.676;2022-11-02T03:28:41;13.50;99.90
15777;DHT22;7989;51.198;6.676;2022-11-02T03:31:14;13.50;99.90
15777;DHT22;7989;51.198;6.676;2022-11-02T03:33:46;13.40;99.90
15777;DHT22;7989;51.198;6.676;2022-11-02T03:36:17;13.40;99.90
15777;DHT22;7989;51.198;6.676;2022-11-02T03:38:47;13.40;99.90
15777;DHT22;7989;51.198;6.676;2022-11-02T03:41:17;13.30;99.90
15777;DHT22;7989;51.198;6.676;2022-11-02T03:43:47;13.40;99.90
15777;DHT22;7989;51.198;6.676;2022-11-02T03:46:16;13.30;99.90
15777;DHT22;7989;51.198;6.676;2022-11-02T03:48:46;13.30;99.90
15777;DHT22;7989;51.198;6.676;2022-11-02T03:51:16;13.30;99.90
15777;DHT22;7989;51.198;6.676;2022-11-02T03:53:48;13.30;99.90
15777;DHT22;7989;51.198;6.676;2022-11-02T03:56:20;13.20;99.90
15777;DHT22;7989;51.198;6.676;2022-11-02T03:58:49;13.20;99.90
15777;DHT22;7989;51.198;6.676;2022-11-02T04:01:18;13.20;99.90
15777;DHT22;7989;51.198;6.676;2022-11-02T04:03:46;13.20;99.90
15777;DHT22;7989;51.198;6.676;2022-11-02T04:06:13;13.20;99.90
15777;DHT22;7989;51.198;6.676;2022-11-02T04:08:42;13.10;99.90
15777;DHT22;7989;51.198;6.676;2022-11-02T04:11:09;13.10;99.90
15777;DHT22;7989;51.198;6.676;2022-11-02T04:13:54;13.00;99.90
15777;DHT22;7989;51.198;6.676;2022-11-02T04:16:39;13.00;99.90
15777;DHT22;7989;51.198;6.676;2022-11-02T04:19:07;13.00;99.90
15777;DHT22;7989;51.198;6.676;2022-11-02T04:21:51;13.00;99.90
15777;DHT22;7989;51.198;6.676;2022-11-02T04:24:35;13.00;99.90
15777;DHT22;7989;51.198;6.676;2022-11-02T04:27:20;12.90;99.90
15777;DHT22;7989;51.198;6.676;2022-11-02T04:29:47;12.90;99.90
15777;DHT22;7989;51.198;6.676;2022-11-02T04:32:15;12.90;99.90
15777;DHT22;7989;51.198;6.676;2022-11-02T04:35:02;12.90;99.90
15777;DHT22;7989;51.198;6.676;2022-11-02T04:37:28;12.90;99.90
15777;DHT22;7989;51.198;6.676;2022-11-02T04:40:12;12.90;99.90
15777;DHT22;7989;51.198;6.676;2022-11-02T04:42:39;13.00;99.90
15777;DHT22;7989;51.198;6.676;2022-11-02T04:45:07;12.90;99.90
15777;DHT22;7989;51.198;6.676;2022-11-02T04:47:35;12.90;99.90
15777;DHT22;7989;51.198;6.676;2022-11-02T04:50:02;12.90;99.90
15777;DHT22;7989;51.198;6.676;2022-11-02T04:52:29;12.90;99.90
15777;DHT22;7989;51.198;6.676;2022-11-02T04:54:56;12.90;99.90
15777;DHT22;7989;51.198;6.676;2022-11-02T04:57:23;12.90;99.90
15777;DHT22;7989;51.198;6.676;2022-11-02T04:59:49;12.90;99.90
15777;DHT22;7989;51.198;6.676;2022-11-02T05:02:16;12.90;99.90
15777;DHT22;7989;51.198;6.676;2022-11-02T05:04:44;12.80;99.90
15777;DHT22;7989;51.198;6.676;2022-11-02T05:07:11;12.90;99.90
15777;DHT22;7989;51.198;6.676;2022-11-02T05:09:38;12.90;99.90
15777;DHT22;7989;51.198;6.676;2022-11-02T05:12:07;13.00;99.90
15777;DHT22;7989;51.198;6.676;2022-11-02T05:14:34;13.00;99.90
15777;DHT22;7989;51.198;6.676;2022-11-02T05:17:01;12.90;99.90
15777;DHT22;7989;51.198;6.676;2022-11-02T05:19:27;12.90;99.90
15777;DHT22;7989;51.198;6.676;2022-11-02T05:21:56;12.90;99.90
15777;DHT22;7989;51.198;6.676;2022-11-02T05:24:22;12.90;99.90
15777;DHT22;7989;51.198;6.676;2022-11-02T05:26:49;12.90;99.90
15777;DHT22;7989;51.198;6.676;2022-11-02T05:29:16;12.90;99.90
15777;DHT22;7989;51.198;6.676;2022-11-02T05:31:43;12.90;99.90
15777;DHT22;7989;51.198;6.676;2022-11-02T05:34:09;12.90;99.90
15777;DHT22;7989;51.198;6.676;2022-11-02T05:36:36;12.90;99.90
15777;DHT22;7989;51.198;6.676;2022-11-02T05:39:04;12.80;99.90
15777;DHT22;7989;51.198;6.676;2022-11-02T05:41:31;12.80;99.90
15777;DHT22;7989;51.198;6.676;2022-11-02T05:43:58;12.80;99.90
15777;DHT22;7989;51.198;6.676;2022-11-02T05:46:25;12.70;99.90
15777;DHT22;7989;51.198;6.676;2022-11-02T05:48:52;12.70;99.90
15777;DHT22;7989;51.198;6.676;2022-11-02T05:51:18;12.70;99.90
15777;DHT22;7989;51.198;6.676;2022-11-02T05:53:45;12.70;99.90
15777;DHT22;7989;51.198;6.676;2022-11-02T05:56:13;12.70;99.90
15777;DHT22;7989;51.198;6.676;2022-11-02T05:58:40;12.70;99.90
15777;DHT22;7989;51.198;6.676;2022-11-02T06:01:08;12.60;99.90
15777;DHT22;7989;51.198;6.676;2022-11-02T06:03:36;12.50;99.90
15777;DHT22;7989;51.198;6.676;2022-11-02T06:06:04;12.50;99.90
15777;DHT22;7989;51.198;6.676;2022-11-02T06:08:32;12.50;99.90
15777;DHT22;7989;51.198;6.676;2022-11-02T06:11:03;12.50;99.90
15777;DHT22;7989;51.198;6.676;2022-11-02T06:13:31;12.50;99.90
15777;DHT22;7989;51.198;6.676;2022-11-02T06:15:58;12.50;99.90
15777;DHT22;7989;51.198;6.676;2022-11-02T06:18:25;12.50;99.90
15777;DHT22;7989;51.198;6.676;2022-11-02T06:20:52;12.50;99.90
15777;DHT22;7989;51.198;6.676;2022-11-02T06:23:18;12.50;99.90
15777;DHT22;7989;51.198;6.676;2022-11-02T06:25:50;12.40;99.90
15777;DHT22;7989;51.198;6.676;2022-11-02T06:28:17;12.40;99.90
15777;DHT22;7989;51.198;6.676;2022-11-02T06:30:45;12.40;99.90
15777;DHT22;7989;51.198;6.676;2022-11-02T06:33:13;12.30;99.90
15777;DHT22;7989;51.198;6.676;2022-11-02T06:35:43;12.40;99.90
15777;DHT22;7989;51.198;6.676;2022-11-02T06:38:10;12.40;99.90
15777;DHT22;7989;51.198;6.676;2022-11-02T06:40:37;12.40;99.90
15777;DHT22;7989;51.198;6.676;2022-11-02T06:43:04;12.40;99.90
15777;DHT22;7989;51.198;6.676;2022-11-02T06:45:31;12.40;99.90
15777;DHT22;7989;51.198;6.676;2022-11-02T06:47:59;12.40;99.90
15777;DHT22;7989;51.198;6.676;2022-11-02T06:50:26;12.40;99.90
15777;DHT22;7989;51.198;6.676;2022-11-02T06:52:54;12.50;99.90
15777;DHT22;7989;51.198;6.676;2022-11-02T06:55:21;12.50;99.90
15777;DHT22;7989;51.198;6.676;2022-11-02T06:57:47;12.50;99.90
15777;DHT22;7989;51.198;6.676;2022-11-02T07:00:15;12.50;99.90
15777;DHT22;7989;51.198;6.676;2022-11-02T07:02:42;12.50;99.90
15777;DHT22;7989;51.198;6.676;2022-11-02T07:05:11;12.60;99.90
15777;DHT22;7989;51.198;6.676;2022-11-02T07:07:38;12.70;99.90
15777;DHT22;7989;51.198;6.676;2022-11-02T07:10:06;12.90;99.90
15777;DHT22;7989;51.198;6.676;2022-11-02T07:12:35;12.90;99.90
15777;DHT22;7989;51.198;6.676;2022-11-02T07:15:02;13.00;99.90
15777;DHT22;7989;51.198;6.676;2022-11-02T07:17:29;13.10;99.90
15777;DHT22;7989;51.198;6.676;2022-11-02T07:19:55;13.20;99.90
15777;DHT22;7989;51.198;6.676;2022-11-02T07:22:24;13.20;99.90
15777;DHT22;7989;51.198;6.676;2022-11-02T07:24:51;13.20;99.90
15777;DHT22;7989;51.198;6.676;2022-11-02T07:27:18;13.10;99.90
15777;DHT22;7989;51.198;6.676;2022-11-02T07:29:45;13.10;99.90
15777;DHT22;7989;51.198;6.676;2022-11-02T07:32:12;13.00;99.90
15777;DHT22;7989;51.198;6.676;2022-11-02T07:34:39;13.00;99.90
15777;DHT22;7989;51.198;6.676;2022-11-02T07:37:06;13.00;99.90
15777;DHT22;7989;51.198;6.676;2022-11-02T07:39:34;13.00;99.90
15777;DHT22;7989;51.198;6.676;2022-11-02T07:42:01;13.00;99.90
15777;DHT22;7989;51.198;6.676;2022-11-02T07:44:28;13.10;99.90
15777;DHT22;7989;51.198;6.676;2022-11-02T07:46:55;13.10;99.90
15777;DHT22;7989;51.198;6.676;2022-11-02T07:49:22;13.10;99.90
15777;DHT22;7989;51.198;6.676;2022-11-02T07:51:49;13.10;99.90
15777;DHT22;7989;51.198;6.676;2022-11-02T07:54:15;13.10;99.90
15777;DHT22;7989;51.198;6.676;2022-11-02T07:56:44;13.20;99.90
15777;DHT22;7989;51.198;6.676;2022-11-02T07:59:11;13.20;99.90
15777;DHT22;7989;51.198;6.676;2022-11-02T08:01:38;13.20;99.90
15777;DHT22;7989;51.198;6.676;2022-11-02T08:04:05;13.20;99.90
15777;DHT22;7989;51.198;6.676;2022-11-02T08:06:33;13.30;99.90
15777;DHT22;7989;51.198;6.676;2022-11-02T08:09:00;13.30;99.90
15777;DHT22;7989;51.198;6.676;2022-11-02T08:11:28;13.40;99.90
15777;DHT22;7989;51.198;6.676;2022-11-02T08:13:56;13.40;99.90
15777;DHT22;7989;51.198;6.676;2022-11-02T08:16:23;13.50;99.90
15777;DHT22;7989;51.198;6.676;2022-11-02T08:18:50;13.50;99.90
15777;DHT22;7989;51.198;6.676;2022-11-02T08:21:17;13.60;99.90
15777;DHT22;7989;51.198;6.676;2022-11-02T08:23:43;13.60;99.90
15777;DHT22;7989;51.198;6.676;2022-11-02T08:26:10;13.70;99.90
15777;DHT22;7989;51.198;6.676;2022-11-02T08:28:37;13.80;99.90
15777;DHT22;7989;51.198;6.676;2022-11-02T08:31:11;13.90;99.90
15777;DHT22;7989;51.198;6.676;2022-11-02T08:33:39;13.90;99.90
15777;DHT22;7989;51.198;6.676;2022-11-02T08:36:07;13.90;99.90
15777;DHT22;7989;51.198;6.676;2022-11-02T08:38:35;13.90;99.90
15777;DHT22;7989;51.198;6.676;2022-11-02T08:41:02;13.90;99.90
15777;DHT22;7989;51.198;6.676;2022-11-02T08:43:30;13.90;99.90
15777;DHT22;7989;51.198;6.676;2022-11-02T08:45:57;14.00;99.90
15777;DHT22;7989;51.198;6.676;2022-11-02T08:48:25;14.20;99.90
15777;DHT22;7989;51.198;6.676;2022-11-02T08:50:52;15.30;99.90
15777;DHT22;7989;51.198;6.676;2022-11-02T08:53:20;16.90;99.90
15777;DHT22;7989;51.198;6.676;2022-11-02T08:55:47;16.30;99.90
15777;DHT22;7989;51.198;6.676;2022-11-02T08:58:14;17.00;99.90
15777;DHT22;7989;51.198;6.676;2022-11-02T09:00:41;19.90;99.90
15777;DHT22;7989;51.198;6.676;2022-11-02T09:03:10;19.40;99.90
15777;DHT22;7989;51.198;6.676;2022-11-02T09:05:40;18.20;99.90
15777;DHT22;7989;51.198;6.676;2022-11-02T09:08:10;17.00;99.90
15777;DHT22;7989;51.198;6.676;2022-11-02T09:10:37;17.00;99.90
15777;DHT22;7989;51.198;6.676;2022-11-02T09:13:06;19.60;99.90
15777;DHT22;7989;51.198;6.676;2022-11-02T09:15:34;21.20;99.90
15777;DHT22;7989;51.198;6.676;2022-11-02T09:18:02;21.80;99.90
15777;DHT22;7989;51.198;6.676;2022-11-02T09:20:29;21.90;99.90
15777;DHT22;7989;51.198;6.676;2022-11-02T09:22:57;22.00;99.90
15777;DHT22;7989;51.198;6.676;2022-11-02T09:25:24;23.30;99.90
15777;DHT22;7989;51.198;6.676;2022-11-02T09:27:52;23.90;99.90
15777;DHT22;7989;51.198;6.676;2022-11-02T09:30:19;24.20;99.90
15777;DHT22;7989;51.198;6.676;2022-11-02T09:32:52;23.60;99.90
15777;DHT22;7989;51.198;6.676;2022-11-02T09:35:19;23.90;99.90
15777;DHT22;7989;51.198;6.676;2022-11-02T09:37:46;21.80;99.90
15777;DHT22;7989;51.198;6.676;2022-11-02T09:40:19;20.80;99.90
15777;DHT22;7989;51.198;6.676;2022-11-02T09:43:00;20.40;99.90
15777;DHT22;7989;51.198;6.676;2022-11-02T09:45:31;18.60;99.90
15777;DHT22;7989;51.198;6.676;2022-11-02T09:48:03;17.80;99.90
15777;DHT22;7989;51.198;6.676;2022-11-02T09:50:38;17.30;99.90
15777;DHT22;7989;51.198;6.676;2022-11-02T09:53:11;17.20;99.90
15777;DHT22;7989;51.198;6.676;2022-11-02T09:55:46;17.10;99.90
15777;DHT22;7989;51.198;6.676;2022-11-02T09:58:20;18.00;99.90
15777;DHT22;7989;51.198;6.676;2022-11-02T10:00:51;19.30;99.90
15777;DHT22;7989;51.198;6.676;2022-11-02T10:03:27;20.60;99.90
15777;DHT22;7989;51.198;6.676;2022-11-02T10:06:01;20.50;99.90
15777;DHT22;7989;51.198;6.676;2022-11-02T10:08:37;23.00;99.90
15777;DHT22;7989;51.198;6.676;2022-11-02T10:11:17;22.10;99.90
15777;DHT22;7989;51.198;6.676;2022-11-02T10:13:50;20.70;99.90
15777;DHT22;7989;51.198;6.676;2022-11-02T10:16:21;19.10;99.90
15777;DHT22;7989;51.198;6.676;2022-11-02T10:18:51;17.90;99.90
15777;DHT22;7989;51.198;6.676;2022-11-02T10:21:20;18.70;99.90
15777;DHT22;7989;51.198;6.676;2022-11-02T10:23:50;22.10;99.90
15777;DHT22;7989;51.198;6.676;2022-11-02T10:26:22;23.90;99.90
15777;DHT22;7989;51.198;6.676;2022-11-02T10:28:55;24.30;99.90
15777;DHT22;7989;51.198;6.676;2022-11-02T10:31:26;20.90;99.90
15777;DHT22;7989;51.198;6.676;2022-11-02T10:33:55;19.60;99.90
15777;DHT22;7989;51.198;6.676;2022-11-02T10:36:35;21.00;99.90
15777;DHT22;7989;51.198;6.676;2022-11-02T10:39:18;21.90;99.90
15777;DHT22;7989;51.198;6.676;2022-11-02T10:42:26;21.40;99.90
15777;DHT22;7989;51.198;6.676;2022-11-02T10:45:15;23.60;99.90
15777;DHT22;7989;51.198;6.676;2022-11-02T10:47:54;24.90;99.90
15777;DHT22;7989;51.198;6.676;2022-11-02T10:50:35;25.30;99.90
15777;DHT22;7989;51.198;6.676;2022-11-02T10:53:03;25.70;99.90
15777;DHT22;7989;51.198;6.676;2022-11-02T10:55:44;25.00;99.90
15777;DHT22;7989;51.198;6.676;2022-11-02T10:58:20;24.90;99.90
15777;DHT22;7989;51.198;6.676;2022-11-02T11:00:47;24.40;99.90
15777;DHT22;7989;51.198;6.676;2022-11-02T11:03:17;24.30;99.90
15777;DHT22;7989;51.198;6.676;2022-11-02T11:05:56;23.80;99.90
15777;DHT22;7989;51.198;6.676;2022-11-02T11:08:33;23.00;99.90
15777;DHT22;7989;51.198;6.676;2022-11-02T11:11:21;22.50;99.90
15777;DHT22;7989;51.198;6.676;2022-11-02T11:14:01;22.50;99.90
15777;DHT22;7989;51.198;6.676;2022-11-02T11:16:35;22.30;99.90
15777;DHT22;7989;51.198;6.676;2022-11-02T11:19:04;22.00;99.90
15777;DHT22;7989;51.198;6.676;2022-11-02T11:21:38;21.90;99.90
15777;DHT22;7989;51.198;6.676;2022-11-02T11:24:23;21.90;99.90
15777;DHT22;7989;51.198;6.676;2022-11-02T11:27:16;22.10;99.90
15777;DHT22;7989;51.198;6.676;2022-11-02T11:29:50;22.00;99.90
15777;DHT22;7989;51.198;6.676;2022-11-02T11:32:21;21.40;99.90
15777;DHT22;7989;51.198;6.676;2022-11-02T11:34:55;21.50;99.90
15777;DHT22;7989;51.198;6.676;2022-11-02T11:37:23;21.20;99.90
15777;DHT22;7989;51.198;6.676;2022-11-02T11:39:54;21.00;99.90
15777;DHT22;7989;51.198;6.676;2022-11-02T11:42:23;20.30;99.90
15777;DHT22;7989;51.198;6.676;2022-11-02T11:44:58;20.30;99.90
15777;DHT22;7989;51.198;6.676;2022-11-02T11:47:28;20.30;99.90
15777;DHT22;7989;51.198;6.676;2022-11-02T11:49:59;19.70;99.90
15777;DHT22;7989;51.198;6.676;2022-11-02T11:52:29;19.60;99.90
15777;DHT22;7989;51.198;6.676;2022-11-02T11:54:57;19.10;99.90
15777;DHT22;7989;51.198;6.676;2022-11-02T11:57:28;18.80;99.90
15777;DHT22;7989;51.198;6.676;2022-11-02T11:59:58;18.60;99.90
15777;DHT22;7989;51.198;6.676;2022-11-02T12:02:28;18.70;99.90
15777;DHT22;7989;51.198;6.676;2022-11-02T12:05:11;18.80;99.90
15777;DHT22;7989;51.198;6.676;2022-11-02T12:08:00;19.00;99.90
15777;DHT22;7989;51.198;6.676;2022-11-02T12:10:40;19.00;99.90
15777;DHT22;7989;51.198;6.676;2022-11-02T12:13:17;19.10;99.90
15777;DHT22;7989;51.198;6.676;2022-11-02T12:16:05;19.40;99.90
15777;DHT22;7989;51.198;6.676;2022-11-02T12:18:46;19.80;99.90
15777;DHT22;7989;51.198;6.676;2022-11-02T12:21:25;20.10;99.90
15777;DHT22;7989;51.198;6.676;2022-11-02T12:27:09;19.30;99.90
15777;DHT22;7989;51.198;6.676;2022-11-02T12:29:55;19.00;99.90
15777;DHT22;7989;51.198;6.676;2022-11-02T12:32:36;18.90;99.90
15777;DHT22;7989;51.198;6.676;2022-11-02T12:35:18;18.90;99.90
15777;DHT22;7989;51.198;6.676;2022-11-02T12:37:58;18.70;99.90
15777;DHT22;7989;51.198;6.676;2022-11-02T12:40:37;18.40;99.90
15777;DHT22;7989;51.198;6.676;2022-11-02T12:43:19;18.30;99.90
15777;DHT22;7989;51.198;6.676;2022-11-02T12:45:53;18.40;99.90
15777;DHT22;7989;51.198;6.676;2022-11-02T12:48:32;18.10;99.90
15777;DHT22;7989;51.198;6.676;2022-11-02T12:51:06;18.10;99.90
15777;DHT22;7989;51.198;6.676;2022-11-02T12:53:39;18.10;99.90
15777;DHT22;7989;51.198;6.676;2022-11-02T12:56:13;18.10;99.90
15777;DHT22;7989;51.198;6.676;2022-11-02T12:58:42;18.00;99.90
15777;DHT22;7989;51.198;6.676;2022-11-02T13:01:16;18.30;99.90
15777;DHT22;7989;51.198;6.676;2022-11-02T13:03:50;18.70;99.90
15777;DHT22;7989;51.198;6.676;2022-11-02T13:06:23;18.70;99.90
15777;DHT22;7989;51.198;6.676;2022-11-02T13:08:55;18.60;99.90
15777;DHT22;7989;51.198;6.676;2022-11-02T13:11:25;18.60;99.90
15777;DHT22;7989;51.198;6.676;2022-11-02T13:13:56;18.50;99.90
15777;DHT22;7989;51.198;6.676;2022-11-02T13:16:32;18.30;99.90
15777;DHT22;7989;51.198;6.676;2022-11-02T13:19:03;17.90;99.90
15777;DHT22;7989;51.198;6.676;2022-11-02T13:21:34;17.70;99.90
15777;DHT22;7989;51.198;6.676;2022-11-02T13:24:01;17.80;99.90
15777;DHT22;7989;51.198;6.676;2022-11-02T13:26:32;17.80;99.90
15777;DHT22;7989;51.198;6.676;2022-11-02T13:29:05;17.90;99.90
15777;DHT22;7989;51.198;6.676;2022-11-02T13:31:38;17.90;99.90
15777;DHT22;7989;51.198;6.676;2022-11-02T13:34:10;18.20;99.90
15777;DHT22;7989;51.198;6.676;2022-11-02T13:36:38;18.10;99.90
15777;DHT22;7989;51.198;6.676;2022-11-02T13:39:08;17.90;99.90
15777;DHT22;7989;51.198;6.676;2022-11-02T13:41:50;17.70;99.90
15777;DHT22;7989;51.198;6.676;2022-11-02T13:47:35;17.30;99.90
15777;DHT22;7989;51.198;6.676;2022-11-02T13:50:11;17.30;99.90
15777;DHT22;7989;51.198;6.676;2022-11-02T13:52:40;17.40;99.90
15777;DHT22;7989;51.198;6.676;2022-11-02T13:55:14;17.40;99.90
15777;DHT22;7989;51.198;6.676;2022-11-02T13:57:45;17.20;99.90
15777;DHT22;7989;51.198;6.676;2022-11-02T14:00:28;17.00;99.90
15777;DHT22;7989;51.198;6.676;2022-11-02T14:02:59;17.10;99.90
15777;DHT22;7989;51.198;6.676;2022-11-02T14:05:30;17.30;99.90
15777;DHT22;7989;51.198;6.676;2022-11-02T14:07:59;17.50;99.90
15777;DHT22;7989;51.198;6.676;2022-11-02T14:10:27;17.70;99.90
15777;DHT22;7989;51.198;6.676;2022-11-02T14:12:55;17.80;99.90
15777;DHT22;7989;51.198;6.676;2022-11-02T14:15:50;17.70;99.90
15777;DHT22;7989;51.198;6.676;2022-11-02T14:18:29;17.50;99.90
15777;DHT22;7989;51.198;6.676;2022-11-02T14:20:58;17.30;99.90
15777;DHT22;7989;51.198;6.676;2022-11-02T14:23:38;17.20;99.90
15777;DHT22;7989;51.198;6.676;2022-11-02T14:26:29;17.10;99.90
15777;DHT22;7989;51.198;6.676;2022-11-02T14:28:56;17.00;99.90
15777;DHT22;7989;51.198;6.676;2022-11-02T14:31:43;17.00;99.90
15777;DHT22;7989;51.198;6.676;2022-11-02T14:34:35;16.90;99.90
15777;DHT22;7989;51.198;6.676;2022-11-02T14:37:32;16.90;99.90
15777;DHT22;7989;51.198;6.676;2022-11-02T14:40:07;16.90;99.90
15777;DHT22;7989;51.198;6.676;2022-11-02T14:42:54;16.70;99.90
15777;DHT22;7989;51.198;6.676;2022-11-02T14:45:47;16.70;99.90
15777;DHT22;7989;51.198;6.676;2022-11-02T14:48:17;16.60;99.90
15777;DHT22;7989;51.198;6.676;2022-11-02T14:50:57;16.50;99.90
15777;DHT22;7989;51.198;6.676;2022-11-02T14:53:30;16.50;99.90
15777;DHT22;7989;51.198;6.676;2022-11-02T14:55:57;16.30;99.90
15777;DHT22;7989;51.198;6.676;2022-11-02T14:58:30;16.30;99.90
15777;DHT22;7989;51.198;6.676;2022-11-02T15:00:59;16.20;99.90
15777;DHT22;7989;51.198;6.676;2022-11-02T15:03:32;16.10;99.90
15777;DHT22;7989;51.198;6.676;2022-11-02T15:06:02;16.00;99.90
15777;DHT22;7989;51.198;6.676;2022-11-02T15:08:35;15.90;99.90
15777;DHT22;7989;51.198;6.676;2022-11-02T15:11:41;15.80;99.90
15777;DHT22;7989;51.198;6.676;2022-11-02T15:14:31;15.70;99.90
15777;DHT22;7989;51.198;6.676;2022-11-02T15:16:58;15.60;99.90
15777;DHT22;7989;51.198;6.676;2022-11-02T15:19:39;15.60;99.90
15777;DHT22;7989;51.198;6.676;2022-11-02T15:22:34;15.60;99.90
15777;DHT22;7989;51.198;6.676;2022-11-02T15:25:08;15.50;99.90
15777;DHT22;7989;51.198;6.676;2022-11-02T15:27:37;15.50;99.90
15777;DHT22;7989;51.198;6.676;2022-11-02T15:30:05;15.40;99.90
15777;DHT22;7989;51.198;6.676;2022-11-02T15:32:38;15.40;99.90
15777;DHT22;7989;51.198;6.676;2022-11-02T15:35:14;15.30;99.90
15777;DHT22;7989;51.198;6.676;2022-11-02T15:37:41;15.20;99.90
15777;DHT22;7989;51.198;6.676;2022-11-02T15:40:18;15.20;99.90
15777;DHT22;7989;51.198;6.676;2022-11-02T15:42:53;15.10;99.90
15777;DHT22;7989;51.198;6.676;2022-11-02T15:45:35;15.00;99.90
15777;DHT22;7989;51.198;6.676;2022-11-02T15:48:14;15.00;99.90
15777;DHT22;7989;51.198;6.676;2022-11-02T15:50:48;15.00;99.90
15777;DHT22;7989;51.198;6.676;2022-11-02T15:56:34;14.90;99.90
15777;DHT22;7989;51.198;6.676;2022-11-02T16:02:20;14.80;99.90
15777;DHT22;7989;51.198;6.676;2022-11-02T16:04:50;14.70;99.90
15777;DHT22;7989;51.198;6.676;2022-11-02T16:07:18;14.60;99.90
15777;DHT22;7989;51.198;6.676;2022-11-02T16:09:46;14.60;99.90
15777;DHT22;7989;51.198;6.676;2022-11-02T16:12:16;14.60;99.90
15777;DHT22;7989;51.198;6.676;2022-11-02T16:14:50;14.50;99.90
15777;DHT22;7989;51.198;6.676;2022-11-02T16:17:19;14.40;99.90
15777;DHT22;7989;51.198;6.676;2022-11-02T16:19:46;14.40;99.90
15777;DHT22;7989;51.198;6.676;2022-11-02T16:22:21;14.40;99.90
15777;DHT22;7989;51.198;6.676;2022-11-02T16:24:49;14.30;99.90